sensor_id;sensor_type;location;lat;lon;timestamp;P1;durP1;ratioP1;P2;durP2;ratioP2
11121;SDS011;5615;49.304;10.576;2023-08-31T00:01:30;8.00;;;6.80;;
11121;SDS011;5615;49.304;10.576;2023-08-31T00:03:57;10.00;;;7.07;;
11121;SDS011;5615;49.304;10.576;2023-08-31T00:06:25;8.93;;;7.03;;
11121;SDS011;5615;49.304;10.576;2023-08-31T00:08:52;7.97;;;7.03;;
11121;SDS011;5615;49.304;10.576;2023-08-31T00:11:18;8.90;;;7.53;;
11121;SDS011;5615;49.304;10.576;2023-08-31T00:13:46;9.13;;;7.70;;
11121;SDS011;5615;49.304;10.576;2023-08-31T00:16:12;8.87;;;7.97;;
11121;SDS011;5615;49.304;10.576;2023-08-31T00:18:40;8.70;;;7.77;;
11121;SDS011;5615;49.304;10.576;2023-08-31T00:21:07;9.47;;;8.57;;
11121;SDS011;5615;49.304;10.576;2023-08-31T00:23:34;10.77;;;9.67;;
11121;SDS011;5615;49.304;10.576;2023-08-31T00:26:02;10.20;;;9.20;;
11121;SDS011;5615;49.304;10.576;2023-08-31T00:28:30;10.47;;;9.47;;
11121;SDS011;5615;49.304;10.576;2023-08-31T00:30:56;11.50;;;9.70;;
11121;SDS011;5615;49.304;10.576;2023-08-31T00:33:28;11.30;;;10.07;;
11121;SDS011;5615;49.304;10.576;2023-08-31T00:35:56;13.07;;;11.10;;
11121;SDS011;5615;49.304;10.576;2023-08-31T00:38:26;12.20;;;10.63;;
11121;SDS011;5615;49.304;10.576;2023-08-31T00:40:54;12.23;;;11.00;;
11121;SDS011;5615;49.304;10.576;2023-08-31T00:43:20;11.57;;;10.50;;
11121;SDS011;5615;49.304;10.576;2023-08-31T00:45:48;11.60;;;10.50;;
11121;SDS011;5615;49.304;10.576;2023-08-31T00:48:17;11.33;;;10.23;;
11121;SDS011;5615;49.304;10.576;2023-08-31T00:50:45;11.87;;;10.70;;
11121;SDS011;5615;49.304;10.576;2023-08-31T00:53:13;11.40;;;10.37;;
11121;SDS011;5615;49.304;10.576;2023-08-31T00:55:41;11.37;;;9.93;;
11121;SDS011;5615;49.304;10.576;2023-08-31T00:58:10;10.83;;;9.83;;
11121;SDS011;5615;49.304;10.576;2023-08-31T01:00:40;11.33;;;10.23;;
11121;SDS011;5615;49.304;10.576;2023-08-31T01:03:14;11.43;;;9.83;;
11121;SDS011;5615;49.304;10.576;2023-08-31T01:05:51;11.23;;;10.23;;
11121;SDS011;5615;49.304;10.576;2023-08-31T01:08:28;10.70;;;9.70;;
11121;SDS011;5615;49.304;10.576;2023-08-31T01:11:05;11.17;;;10.07;;
11121;SDS011;5615;49.304;10.576;2023-08-31T01:13:38;11.43;;;10.33;;
11121;SDS011;5615;49.304;10.576;2023-08-31T01:16:10;12.07;;;10.73;;
11121;SDS011;5615;49.304;10.576;2023-08-31T01:18:39;11.57;;;10.47;;
11121;SDS011;5615;49.304;10.576;2023-08-31T01:21:08;11.50;;;10.40;;
11121;SDS011;5615;49.304;10.576;2023-08-31T01:23:46;11.93;;;10.83;;
11121;SDS011;5615;49.304;10.576;2023-08-31T01:26:16;12.27;;;11.07;;
11121;SDS011;5615;49.304;10.576;2023-08-31T01:28:43;12.27;;;11.17;;
11121;SDS011;5615;49.304;10.576;2023-08-31T01:31:10;12.40;;;11.30;;
11121;SDS011;5615;49.304;10.576;2023-08-31T01:33:37;13.60;;;11.30;;
11121;SDS011;5615;49.304;10.576;2023-08-31T01:36:04;12.63;;;11.43;;
11121;SDS011;5615;49.304;10.576;2023-08-31T01:38:37;13.57;;;12.17;;
11121;SDS011;5615;49.304;10.576;2023-08-31T01:41:10;13.80;;;11.87;;
11121;SDS011;5615;49.304;10.576;2023-08-31T01:43:42;12.60;;;11.40;;
11121;SDS011;5615;49.304;10.576;2023-08-31T01:46:10;12.90;;;11.60;;
11121;SDS011;5615;49.304;10.576;2023-08-31T01:48:38;14.47;;;12.40;;
11121;SDS011;5615;49.304;10.576;2023-08-31T01:51:05;13.40;;;12.10;;
11121;SDS011;5615;49.304;10.576;2023-08-31T01:53:32;16.97;;;12.67;;
11121;SDS011;5615;49.304;10.576;2023-08-31T01:55:59;13.20;;;11.90;;
11121;SDS011;5615;49.304;10.576;2023-08-31T01:58:27;13.40;;;12.10;;
11121;SDS011;5615;49.304;10.576;2023-08-31T02:00:54;14.07;;;12.40;;
11121;SDS011;5615;49.304;10.576;2023-08-31T02:03:21;13.57;;;12.30;;
11121;SDS011;5615;49.304;10.576;2023-08-31T02:05:48;13.67;;;12.17;;
11121;SDS011;5615;49.304;10.576;2023-08-31T02:08:15;14.13;;;12.63;;
11121;SDS011;5615;49.304;10.576;2023-08-31T02:10:42;14.93;;;13.33;;
11121;SDS011;5615;49.304;10.576;2023-08-31T02:13:09;14.10;;;12.63;;
11121;SDS011;5615;49.304;10.576;2023-08-31T02:15:38;14.97;;;12.50;;
11121;SDS011;5615;49.304;10.576;2023-08-31T02:18:05;14.50;;;13.03;;
11121;SDS011;5615;49.304;10.576;2023-08-31T02:20:33;15.10;;;13.63;;
11121;SDS011;5615;49.304;10.576;2023-08-31T02:23:00;15.23;;;13.60;;
11121;SDS011;5615;49.304;10.576;2023-08-31T02:25:27;14.80;;;13.30;;
11121;SDS011;5615;49.304;10.576;2023-08-31T02:27:53;15.70;;;14.10;;
11121;SDS011;5615;49.304;10.576;2023-08-31T02:30:21;14.87;;;13.37;;
11121;SDS011;5615;49.304;10.576;2023-08-31T02:32:49;17.47;;;14.77;;
11121;SDS011;5615;49.304;10.576;2023-08-31T02:35:15;16.10;;;14.60;;
11121;SDS011;5615;49.304;10.576;2023-08-31T02:37:42;16.93;;;15.10;;
11121;SDS011;5615;49.304;10.576;2023-08-31T02:40:09;17.00;;;15.40;;
11121;SDS011;5615;49.304;10.576;2023-08-31T02:42:36;17.63;;;15.83;;
11121;SDS011;5615;49.304;10.576;2023-08-31T02:45:03;18.80;;;16.83;;
11121;SDS011;5615;49.304;10.576;2023-08-31T02:47:31;19.47;;;17.50;;
11121;SDS011;5615;49.304;10.576;2023-08-31T02:49:59;21.13;;;17.70;;
11121;SDS011;5615;49.304;10.576;2023-08-31T02:52:25;19.60;;;17.67;;
11121;SDS011;5615;49.304;10.576;2023-08-31T02:54:52;19.50;;;17.50;;
11121;SDS011;5615;49.304;10.576;2023-08-31T02:57:19;21.27;;;18.87;;
11121;SDS011;5615;49.304;10.576;2023-08-31T02:59:49;21.13;;;18.93;;
11121;SDS011;5615;49.304;10.576;2023-08-31T03:02:15;20.47;;;18.27;;
11121;SDS011;5615;49.304;10.576;2023-08-31T03:04:42;20.80;;;18.60;;
11121;SDS011;5615;49.304;10.576;2023-08-31T03:07:10;21.50;;;18.83;;
11121;SDS011;5615;49.304;10.576;2023-08-31T03:09:38;21.90;;;19.20;;
11121;SDS011;5615;49.304;10.576;2023-08-31T03:12:04;21.90;;;19.07;;
11121;SDS011;5615;49.304;10.576;2023-08-31T03:14:31;22.63;;;19.47;;
11121;SDS011;5615;49.304;10.576;2023-08-31T03:16:58;23.70;;;18.23;;
11121;SDS011;5615;49.304;10.576;2023-08-31T03:19:25;25.30;;;21.03;;
11121;SDS011;5615;49.304;10.576;2023-08-31T03:21:51;23.07;;;19.93;;
11121;SDS011;5615;49.304;10.576;2023-08-31T03:24:19;21.33;;;19.13;;
11121;SDS011;5615;49.304;10.576;2023-08-31T03:26:46;24.50;;;19.97;;
11121;SDS011;5615;49.304;10.576;2023-08-31T03:29:12;21.77;;;19.33;;
11121;SDS011;5615;49.304;10.576;2023-08-31T03:31:39;21.50;;;19.20;;
11121;SDS011;5615;49.304;10.576;2023-08-31T03:34:06;23.10;;;18.80;;
11121;SDS011;5615;49.304;10.576;2023-08-31T03:36:32;23.67;;;20.10;;
11121;SDS011;5615;49.304;10.576;2023-08-31T03:38:59;23.47;;;18.97;;
11121;SDS011;5615;49.304;10.576;2023-08-31T03:41:27;25.23;;;20.97;;
11121;SDS011;5615;49.304;10.576;2023-08-31T03:43:53;24.73;;;19.90;;
11121;SDS011;5615;49.304;10.576;2023-08-31T03:46:20;23.90;;;21.07;;
11121;SDS011;5615;49.304;10.576;2023-08-31T03:48:47;25.67;;;20.67;;
11121;SDS011;5615;49.304;10.576;2023-08-31T03:51:13;25.90;;;20.47;;
11121;SDS011;5615;49.304;10.576;2023-08-31T03:53:40;26.87;;;21.50;;
11121;SDS011;5615;49.304;10.576;2023-08-31T03:56:06;25.67;;;21.27;;
11121;SDS011;5615;49.304;10.576;2023-08-31T03:58:34;27.63;;;22.00;;
11121;SDS011;5615;49.304;10.576;2023-08-31T04:01:01;24.80;;;21.47;;
11121;SDS011;5615;49.304;10.576;2023-08-31T04:03:28;25.27;;;21.57;;
11121;SDS011;5615;49.304;10.576;2023-08-31T04:05:54;28.77;;;22.20;;
11121;SDS011;5615;49.304;10.576;2023-08-31T04:08:21;24.57;;;21.70;;
11121;SDS011;5615;49.304;10.576;2023-08-31T04:10:48;27.87;;;21.90;;
11121;SDS011;5615;49.304;10.576;2023-08-31T04:13:15;31.67;;;22.77;;
11121;SDS011;5615;49.304;10.576;2023-08-31T04:15:43;30.47;;;22.10;;
11121;SDS011;5615;49.304;10.576;2023-08-31T04:18:09;33.80;;;23.57;;
11121;SDS011;5615;49.304;10.576;2023-08-31T04:20:36;27.30;;;23.00;;
11121;SDS011;5615;49.304;10.576;2023-08-31T04:23:03;31.53;;;23.07;;
11121;SDS011;5615;49.304;10.576;2023-08-31T04:25:29;28.93;;;23.17;;
11121;SDS011;5615;49.304;10.576;2023-08-31T04:27:56;27.07;;;22.60;;
11121;SDS011;5615;49.304;10.576;2023-08-31T04:30:23;29.37;;;22.23;;
11121;SDS011;5615;49.304;10.576;2023-08-31T04:32:52;31.63;;;24.30;;
11121;SDS011;5615;49.304;10.576;2023-08-31T04:35:18;29.90;;;23.30;;
11121;SDS011;5615;49.304;10.576;2023-08-31T04:37:45;25.63;;;22.83;;
11121;SDS011;5615;49.304;10.576;2023-08-31T04:40:12;28.43;;;22.53;;
11121;SDS011;5615;49.304;10.576;2023-08-31T04:42:38;35.03;;;23.63;;
11121;SDS011;5615;49.304;10.576;2023-08-31T04:45:05;27.17;;;23.50;;
11121;SDS011;5615;49.304;10.576;2023-08-31T04:47:33;25.87;;;22.93;;
11121;SDS011;5615;49.304;10.576;2023-08-31T04:50:01;29.20;;;22.93;;
11121;SDS011;5615;49.304;10.576;2023-08-31T04:52:28;28.13;;;22.43;;
11121;SDS011;5615;49.304;10.576;2023-08-31T04:54:55;29.80;;;23.00;;
11121;SDS011;5615;49.304;10.576;2023-08-31T04:57:21;27.77;;;23.50;;
11121;SDS011;5615;49.304;10.576;2023-08-31T04:59:49;30.57;;;23.80;;
11121;SDS011;5615;49.304;10.576;2023-08-31T05:02:15;28.50;;;23.33;;
11121;SDS011;5615;49.304;10.576;2023-08-31T05:04:42;28.90;;;24.00;;
11121;SDS011;5615;49.304;10.576;2023-08-31T05:07:10;27.20;;;22.90;;
11121;SDS011;5615;49.304;10.576;2023-08-31T05:09:36;29.17;;;21.83;;
11121;SDS011;5615;49.304;10.576;2023-08-31T05:12:03;27.93;;;22.57;;
11121;SDS011;5615;49.304;10.576;2023-08-31T05:14:32;28.23;;;21.90;;
11121;SDS011;5615;49.304;10.576;2023-08-31T05:17:02;27.17;;;22.87;;
11121;SDS011;5615;49.304;10.576;2023-08-31T05:19:29;26.73;;;22.93;;
11121;SDS011;5615;49.304;10.576;2023-08-31T05:21:56;26.90;;;21.90;;
11121;SDS011;5615;49.304;10.576;2023-08-31T05:24:24;27.57;;;22.73;;
11121;SDS011;5615;49.304;10.576;2023-08-31T05:26:51;28.53;;;23.37;;
11121;SDS011;5615;49.304;10.576;2023-08-31T05:29:18;29.83;;;23.17;;
11121;SDS011;5615;49.304;10.576;2023-08-31T05:31:44;27.87;;;21.87;;
11121;SDS011;5615;49.304;10.576;2023-08-31T05:34:13;26.57;;;22.53;;
11121;SDS011;5615;49.304;10.576;2023-08-31T05:36:42;26.50;;;21.93;;
11121;SDS011;5615;49.304;10.576;2023-08-31T05:39:09;26.53;;;21.83;;
11121;SDS011;5615;49.304;10.576;2023-08-31T05:41:39;28.43;;;20.67;;
11121;SDS011;5615;49.304;10.576;2023-08-31T05:44:06;25.17;;;19.87;;
11121;SDS011;5615;49.304;10.576;2023-08-31T05:46:33;27.50;;;19.70;;
11121;SDS011;5615;49.304;10.576;2023-08-31T05:48:59;23.23;;;19.03;;
11121;SDS011;5615;49.304;10.576;2023-08-31T05:51:26;21.90;;;18.70;;
11121;SDS011;5615;49.304;10.576;2023-08-31T05:53:52;20.87;;;18.57;;
11121;SDS011;5615;49.304;10.576;2023-08-31T05:56:19;22.07;;;17.20;;
11121;SDS011;5615;49.304;10.576;2023-08-31T05:58:47;19.03;;;17.03;;
11121;SDS011;5615;49.304;10.576;2023-08-31T06:01:15;17.83;;;15.97;;
11121;SDS011;5615;49.304;10.576;2023-08-31T06:03:42;17.63;;;15.23;;
11121;SDS011;5615;49.304;10.576;2023-08-31T06:06:08;18.03;;;14.70;;
11121;SDS011;5615;49.304;10.576;2023-08-31T06:08:35;19.13;;;14.67;;
11121;SDS011;5615;49.304;10.576;2023-08-31T06:11:01;16.33;;;13.47;;
11121;SDS011;5615;49.304;10.576;2023-08-31T06:13:28;15.43;;;13.13;;
11121;SDS011;5615;49.304;10.576;2023-08-31T06:15:56;14.70;;;12.03;;
11121;SDS011;5615;49.304;10.576;2023-08-31T06:18:24;13.30;;;12.10;;
11121;SDS011;5615;49.304;10.576;2023-08-31T06:20:51;14.13;;;12.50;;
11121;SDS011;5615;49.304;10.576;2023-08-31T06:23:18;16.63;;;12.27;;
11121;SDS011;5615;49.304;10.576;2023-08-31T06:25:44;14.10;;;12.20;;
11121;SDS011;5615;49.304;10.576;2023-08-31T06:28:11;12.30;;;10.93;;
11121;SDS011;5615;49.304;10.576;2023-08-31T06:30:38;12.53;;;11.23;;
11121;SDS011;5615;49.304;10.576;2023-08-31T06:33:06;12.20;;;10.90;;
11121;SDS011;5615;49.304;10.576;2023-08-31T06:35:33;11.90;;;10.70;;
11121;SDS011;5615;49.304;10.576;2023-08-31T06:38:00;11.43;;;10.07;;
11121;SDS011;5615;49.304;10.576;2023-08-31T06:40:26;14.27;;;10.63;;
11121;SDS011;5615;49.304;10.576;2023-08-31T06:42:53;13.10;;;10.03;;
11121;SDS011;5615;49.304;10.576;2023-08-31T06:45:19;10.23;;;9.10;;
11121;SDS011;5615;49.304;10.576;2023-08-31T06:47:46;10.80;;;9.70;;
11121;SDS011;5615;49.304;10.576;2023-08-31T06:50:14;10.43;;;9.43;;
11121;SDS011;5615;49.304;10.576;2023-08-31T06:52:41;10.23;;;9.17;;
11121;SDS011;5615;49.304;10.576;2023-08-31T06:55:09;10.70;;;9.30;;
11121;SDS011;5615;49.304;10.576;2023-08-31T06:57:36;9.67;;;8.47;;
11121;SDS011;5615;49.304;10.576;2023-08-31T07:00:03;9.17;;;8.27;;
11121;SDS011;5615;49.304;10.576;2023-08-31T07:02:33;10.50;;;8.77;;
11121;SDS011;5615;49.304;10.576;2023-08-31T07:04:59;8.60;;;7.70;;
11121;SDS011;5615;49.304;10.576;2023-08-31T07:07:27;9.77;;;6.77;;
11121;SDS011;5615;49.304;10.576;2023-08-31T07:09:54;8.03;;;6.10;;
11121;SDS011;5615;49.304;10.576;2023-08-31T07:12:21;9.37;;;6.33;;
11121;SDS011;5615;49.304;10.576;2023-08-31T07:14:48;9.23;;;6.50;;
11121;SDS011;5615;49.304;10.576;2023-08-31T07:17:17;6.83;;;5.77;;
11121;SDS011;5615;49.304;10.576;2023-08-31T07:19:44;6.97;;;4.93;;
11121;SDS011;5615;49.304;10.576;2023-08-31T07:22:10;8.13;;;5.27;;
11121;SDS011;5615;49.304;10.576;2023-08-31T07:24:38;8.10;;;5.20;;
11121;SDS011;5615;49.304;10.576;2023-08-31T07:27:05;6.83;;;4.83;;
11121;SDS011;5615;49.304;10.576;2023-08-31T07:29:32;8.20;;;5.43;;
11121;SDS011;5615;49.304;10.576;2023-08-31T07:31:58;8.50;;;5.27;;
11121;SDS011;5615;49.304;10.576;2023-08-31T07:34:25;6.50;;;4.63;;
11121;SDS011;5615;49.304;10.576;2023-08-31T07:36:52;6.57;;;5.00;;
11121;SDS011;5615;49.304;10.576;2023-08-31T07:39:19;6.20;;;4.67;;
11121;SDS011;5615;49.304;10.576;2023-08-31T07:41:47;7.00;;;4.67;;
11121;SDS011;5615;49.304;10.576;2023-08-31T07:44:14;5.83;;;4.20;;
11121;SDS011;5615;49.304;10.576;2023-08-31T07:46:40;5.40;;;4.40;;
11121;SDS011;5615;49.304;10.576;2023-08-31T07:49:07;7.43;;;5.03;;
11121;SDS011;5615;49.304;10.576;2023-08-31T07:51:33;5.30;;;4.50;;
11121;SDS011;5615;49.304;10.576;2023-08-31T07:54:00;7.93;;;5.17;;
11121;SDS011;5615;49.304;10.576;2023-08-31T07:56:28;5.80;;;4.20;;
11121;SDS011;5615;49.304;10.576;2023-08-31T07:58:56;5.67;;;3.93;;
11121;SDS011;5615;49.304;10.576;2023-08-31T08:01:23;6.00;;;3.90;;
11121;SDS011;5615;49.304;10.576;2023-08-31T08:03:50;5.60;;;4.20;;
11121;SDS011;5615;49.304;10.576;2023-08-31T08:06:16;4.87;;;3.60;;
11121;SDS011;5615;49.304;10.576;2023-08-31T08:08:43;4.67;;;3.63;;
11121;SDS011;5615;49.304;10.576;2023-08-31T08:11:10;5.80;;;3.57;;
11121;SDS011;5615;49.304;10.576;2023-08-31T08:13:36;4.60;;;3.70;;
11121;SDS011;5615;49.304;10.576;2023-08-31T08:16:04;4.93;;;3.73;;
11121;SDS011;5615;49.304;10.576;2023-08-31T08:18:31;6.80;;;3.73;;
11121;SDS011;5615;49.304;10.576;2023-08-31T08:20:58;5.00;;;3.73;;
11121;SDS011;5615;49.304;10.576;2023-08-31T08:23:24;5.40;;;3.90;;
11121;SDS011;5615;49.304;10.576;2023-08-31T08:25:51;4.93;;;3.40;;
11121;SDS011;5615;49.304;10.576;2023-08-31T08:28:18;4.57;;;3.40;;
11121;SDS011;5615;49.304;10.576;2023-08-31T08:30:44;5.03;;;3.20;;
11121;SDS011;5615;49.304;10.576;2023-08-31T08:33:12;6.10;;;3.63;;
11121;SDS011;5615;49.304;10.576;2023-08-31T08:35:39;4.33;;;3.40;;
11121;SDS011;5615;49.304;10.576;2023-08-31T08:38:05;3.63;;;3.23;;
11121;SDS011;5615;49.304;10.576;2023-08-31T08:40:32;6.00;;;3.77;;
11121;SDS011;5615;49.304;10.576;2023-08-31T08:43:00;6.63;;;3.37;;
11121;SDS011;5615;49.304;10.576;2023-08-31T08:45:29;5.87;;;3.27;;
11121;SDS011;5615;49.304;10.576;2023-08-31T08:48:02;3.97;;;3.37;;
11121;SDS011;5615;49.304;10.576;2023-08-31T08:50:32;3.73;;;3.20;;
11121;SDS011;5615;49.304;10.576;2023-08-31T08:53:00;6.50;;;3.10;;
11121;SDS011;5615;49.304;10.576;2023-08-31T08:55:27;6.83;;;3.27;;
11121;SDS011;5615;49.304;10.576;2023-08-31T08:57:53;5.90;;;3.17;;
11121;SDS011;5615;49.304;10.576;2023-08-31T09:00:21;6.57;;;3.13;;
11121;SDS011;5615;49.304;10.576;2023-08-31T09:02:48;5.60;;;3.00;;
11121;SDS011;5615;49.304;10.576;2023-08-31T09:05:14;4.95;;;2.90;;
11121;SDS011;5615;49.304;10.576;2023-08-31T09:10:35;3.97;;;2.80;;
11121;SDS011;5615;49.304;10.576;2023-08-31T09:13:06;3.80;;;3.10;;
11121;SDS011;5615;49.304;10.576;2023-08-31T09:15:40;4.10;;;2.90;;
11121;SDS011;5615;49.304;10.576;2023-08-31T09:18:12;5.50;;;3.67;;
11121;SDS011;5615;49.304;10.576;2023-08-31T09:20:44;5.13;;;3.40;;
11121;SDS011;5615;49.304;10.576;2023-08-31T09:23:13;4.00;;;3.10;;
11121;SDS011;5615;49.304;10.576;2023-08-31T09:25:43;5.43;;;2.92;;
11121;SDS011;5615;49.304;10.576;2023-08-31T09:28:11;3.33;;;3.03;;
11121;SDS011;5615;49.304;10.576;2023-08-31T09:30:38;3.55;;;2.80;;
11121;SDS011;5615;49.304;10.576;2023-08-31T09:33:06;4.68;;;3.17;;
11121;SDS011;5615;49.304;10.576;2023-08-31T09:35:34;4.15;;;2.85;;
11121;SDS011;5615;49.304;10.576;2023-08-31T09:38:05;5.70;;;2.97;;
11121;SDS011;5615;49.304;10.576;2023-08-31T09:40:35;5.80;;;2.85;;
11121;SDS011;5615;49.304;10.576;2023-08-31T09:43:02;5.35;;;3.35;;
11121;SDS011;5615;49.304;10.576;2023-08-31T09:45:29;4.60;;;3.00;;
11121;SDS011;5615;49.304;10.576;2023-08-31T09:47:57;11.30;;;3.25;;
11121;SDS011;5615;49.304;10.576;2023-08-31T09:50:25;5.95;;;3.00;;
11121;SDS011;5615;49.304;10.576;2023-08-31T09:52:53;6.65;;;3.38;;
11121;SDS011;5615;49.304;10.576;2023-08-31T09:55:21;5.22;;;2.55;;
11121;SDS011;5615;49.304;10.576;2023-08-31T09:57:52;5.13;;;3.20;;
11121;SDS011;5615;49.304;10.576;2023-08-31T10:00:20;4.43;;;3.00;;
11121;SDS011;5615;49.304;10.576;2023-08-31T10:02:47;3.97;;;3.13;;
11121;SDS011;5615;49.304;10.576;2023-08-31T10:05:15;3.80;;;3.08;;
11121;SDS011;5615;49.304;10.576;2023-08-31T10:07:42;5.20;;;3.58;;
11121;SDS011;5615;49.304;10.576;2023-08-31T10:10:09;6.45;;;3.13;;
11121;SDS011;5615;49.304;10.576;2023-08-31T10:12:37;4.47;;;2.80;;
11121;SDS011;5615;49.304;10.576;2023-08-31T10:15:07;4.07;;;3.05;;
11121;SDS011;5615;49.304;10.576;2023-08-31T10:17:35;5.32;;;3.10;;
11121;SDS011;5615;49.304;10.576;2023-08-31T10:20:02;6.53;;;2.60;;
11121;SDS011;5615;49.304;10.576;2023-08-31T10:22:29;5.55;;;3.03;;
11121;SDS011;5615;49.304;10.576;2023-08-31T10:24:57;5.07;;;2.47;;
11121;SDS011;5615;49.304;10.576;2023-08-31T10:27:25;3.88;;;2.50;;
11121;SDS011;5615;49.304;10.576;2023-08-31T10:29:52;6.25;;;3.00;;
11121;SDS011;5615;49.304;10.576;2023-08-31T10:32:20;3.53;;;2.40;;
11121;SDS011;5615;49.304;10.576;2023-08-31T10:37:33;5.90;;;3.20;;
11121;SDS011;5615;49.304;10.576;2023-08-31T10:40:06;4.97;;;2.95;;
11121;SDS011;5615;49.304;10.576;2023-08-31T10:42:42;4.15;;;2.80;;
11121;SDS011;5615;49.304;10.576;2023-08-31T10:45:10;5.60;;;3.10;;
11121;SDS011;5615;49.304;10.576;2023-08-31T10:47:38;4.07;;;2.70;;
11121;SDS011;5615;49.304;10.576;2023-08-31T10:50:16;10.63;;;3.20;;
11121;SDS011;5615;49.304;10.576;2023-08-31T10:52:45;4.50;;;3.05;;
11121;SDS011;5615;49.304;10.576;2023-08-31T10:55:12;5.57;;;2.88;;
11121;SDS011;5615;49.304;10.576;2023-08-31T10:57:39;5.63;;;2.65;;
11121;SDS011;5615;49.304;10.576;2023-08-31T11:00:07;7.20;;;3.03;;
11121;SDS011;5615;49.304;10.576;2023-08-31T11:02:36;4.53;;;2.80;;
11121;SDS011;5615;49.304;10.576;2023-08-31T11:05:08;4.05;;;2.97;;
11121;SDS011;5615;49.304;10.576;2023-08-31T11:07:36;3.65;;;2.83;;
11121;SDS011;5615;49.304;10.576;2023-08-31T11:10:09;3.67;;;2.47;;
11121;SDS011;5615;49.304;10.576;2023-08-31T11:12:37;4.07;;;2.50;;
11121;SDS011;5615;49.304;10.576;2023-08-31T11:15:04;3.60;;;2.50;;
11121;SDS011;5615;49.304;10.576;2023-08-31T11:17:32;5.40;;;2.90;;
11121;SDS011;5615;49.304;10.576;2023-08-31T11:19:59;3.67;;;2.53;;
11121;SDS011;5615;49.304;10.576;2023-08-31T11:22:27;4.90;;;2.90;;
11121;SDS011;5615;49.304;10.576;2023-08-31T11:24:54;6.53;;;2.95;;
11121;SDS011;5615;49.304;10.576;2023-08-31T11:27:22;4.28;;;2.90;;
11121;SDS011;5615;49.304;10.576;2023-08-31T11:29:49;6.25;;;2.70;;
11121;SDS011;5615;49.304;10.576;2023-08-31T11:32:15;7.30;;;3.22;;
11121;SDS011;5615;49.304;10.576;2023-08-31T11:34:43;4.65;;;2.65;;
11121;SDS011;5615;49.304;10.576;2023-08-31T11:37:11;3.70;;;2.67;;
11121;SDS011;5615;49.304;10.576;2023-08-31T11:39:41;4.28;;;2.80;;
11121;SDS011;5615;49.304;10.576;2023-08-31T11:42:08;5.50;;;2.80;;
11121;SDS011;5615;49.304;10.576;2023-08-31T11:44:35;3.58;;;2.60;;
11121;SDS011;5615;49.304;10.576;2023-08-31T11:47:01;3.97;;;2.50;;
11121;SDS011;5615;49.304;10.576;2023-08-31T11:49:28;4.70;;;2.70;;
11121;SDS011;5615;49.304;10.576;2023-08-31T11:51:55;3.22;;;2.28;;
11121;SDS011;5615;49.304;10.576;2023-08-31T11:54:24;5.30;;;3.10;;
11121;SDS011;5615;49.304;10.576;2023-08-31T11:56:52;4.32;;;2.65;;
11121;SDS011;5615;49.304;10.576;2023-08-31T11:59:20;5.00;;;2.80;;
11121;SDS011;5615;49.304;10.576;2023-08-31T12:01:48;3.20;;;2.70;;
11121;SDS011;5615;49.304;10.576;2023-08-31T12:04:16;5.30;;;2.42;;
11121;SDS011;5615;49.304;10.576;2023-08-31T12:06:46;5.22;;;2.50;;
11121;SDS011;5615;49.304;10.576;2023-08-31T12:09:13;4.85;;;2.75;;
11121;SDS011;5615;49.304;10.576;2023-08-31T12:11:40;5.55;;;3.22;;
11121;SDS011;5615;49.304;10.576;2023-08-31T12:14:19;4.43;;;2.50;;
11121;SDS011;5615;49.304;10.576;2023-08-31T12:16:47;5.13;;;3.10;;
11121;SDS011;5615;49.304;10.576;2023-08-31T12:19:14;4.18;;;2.78;;
11121;SDS011;5615;49.304;10.576;2023-08-31T12:21:41;3.95;;;2.67;;
11121;SDS011;5615;49.304;10.576;2023-08-31T12:24:09;3.00;;;2.63;;
11121;SDS011;5615;49.304;10.576;2023-08-31T12:26:36;4.03;;;2.45;;
11121;SDS011;5615;49.304;10.576;2023-08-31T12:29:03;4.78;;;2.75;;
11121;SDS011;5615;49.304;10.576;2023-08-31T12:31:31;2.92;;;2.50;;
11121;SDS011;5615;49.304;10.576;2023-08-31T12:33:58;5.80;;;2.63;;
11121;SDS011;5615;49.304;10.576;2023-08-31T12:36:29;3.53;;;2.38;;
11121;SDS011;5615;49.304;10.576;2023-08-31T12:38:56;3.75;;;2.60;;
11121;SDS011;5615;49.304;10.576;2023-08-31T12:41:26;4.80;;;2.47;;
11121;SDS011;5615;49.304;10.576;2023-08-31T12:43:52;3.25;;;2.40;;
11121;SDS011;5615;49.304;10.576;2023-08-31T12:46:19;3.70;;;2.83;;
11121;SDS011;5615;49.304;10.576;2023-08-31T12:48:47;3.60;;;2.33;;
11121;SDS011;5615;49.304;10.576;2023-08-31T12:51:14;6.30;;;2.90;;
11121;SDS011;5615;49.304;10.576;2023-08-31T12:53:41;3.25;;;2.50;;
11121;SDS011;5615;49.304;10.576;2023-08-31T12:56:08;4.10;;;2.40;;
11121;SDS011;5615;49.304;10.576;2023-08-31T12:58:34;3.17;;;2.33;;
11121;SDS011;5615;49.304;10.576;2023-08-31T13:01:02;4.10;;;2.47;;
11121;SDS011;5615;49.304;10.576;2023-08-31T13:03:28;4.15;;;2.75;;
11121;SDS011;5615;49.304;10.576;2023-08-31T13:05:56;6.90;;;2.72;;
11121;SDS011;5615;49.304;10.576;2023-08-31T13:08:23;4.60;;;2.42;;
11121;SDS011;5615;49.304;10.576;2023-08-31T13:10:53;2.90;;;2.60;;
11121;SDS011;5615;49.304;10.576;2023-08-31T13:13:20;4.28;;;2.33;;
11121;SDS011;5615;49.304;10.576;2023-08-31T13:15:47;3.28;;;2.40;;
11121;SDS011;5615;49.304;10.576;2023-08-31T13:18:14;4.50;;;2.53;;
11121;SDS011;5615;49.304;10.576;2023-08-31T13:20:41;5.00;;;2.70;;
11121;SDS011;5615;49.304;10.576;2023-08-31T13:23:16;5.78;;;2.60;;
11121;SDS011;5615;49.304;10.576;2023-08-31T13:25:43;4.25;;;2.75;;
11121;SDS011;5615;49.304;10.576;2023-08-31T13:28:09;5.47;;;2.80;;
11121;SDS011;5615;49.304;10.576;2023-08-31T13:30:36;3.55;;;2.70;;
11121;SDS011;5615;49.304;10.576;2023-08-31T13:33:03;4.00;;;2.60;;
11121;SDS011;5615;49.304;10.576;2023-08-31T13:35:30;3.50;;;2.58;;
11121;SDS011;5615;49.304;10.576;2023-08-31T13:37:57;3.25;;;2.45;;
11121;SDS011;5615;49.304;10.576;2023-08-31T13:40:24;3.85;;;2.63;;
11121;SDS011;5615;49.304;10.576;2023-08-31T13:42:53;4.65;;;2.47;;
11121;SDS011;5615;49.304;10.576;2023-08-31T13:45:21;4.35;;;2.88;;
11121;SDS011;5615;49.304;10.576;2023-08-31T13:47:49;3.60;;;2.70;;
11121;SDS011;5615;49.304;10.576;2023-08-31T13:50:15;6.80;;;2.60;;
11121;SDS011;5615;49.304;10.576;2023-08-31T13:52:42;3.72;;;2.65;;
11121;SDS011;5615;49.304;10.576;2023-08-31T13:55:08;5.53;;;2.75;;
11121;SDS011;5615;49.304;10.576;2023-08-31T13:57:37;5.95;;;2.90;;
11121;SDS011;5615;49.304;10.576;2023-08-31T14:00:05;4.25;;;2.70;;
11121;SDS011;5615;49.304;10.576;2023-08-31T14:02:34;4.32;;;2.80;;
11121;SDS011;5615;49.304;10.576;2023-08-31T14:05:01;3.63;;;2.85;;
11121;SDS011;5615;49.304;10.576;2023-08-31T14:07:28;9.90;;;5.13;;
11121;SDS011;5615;49.304;10.576;2023-08-31T14:09:55;4.55;;;3.17;;
11121;SDS011;5615;49.304;10.576;2023-08-31T14:12:23;6.72;;;4.00;;
11121;SDS011;5615;49.304;10.576;2023-08-31T14:14:51;7.35;;;5.32;;
11121;SDS011;5615;49.304;10.576;2023-08-31T14:17:19;8.45;;;7.65;;
11121;SDS011;5615;49.304;10.576;2023-08-31T14:19:46;5.43;;;3.17;;
11121;SDS011;5615;49.304;10.576;2023-08-31T14:22:13;4.07;;;2.97;;
11121;SDS011;5615;49.304;10.576;2023-08-31T14:24:40;3.97;;;2.50;;
11121;SDS011;5615;49.304;10.576;2023-08-31T14:27:06;4.10;;;2.58;;
11121;SDS011;5615;49.304;10.576;2023-08-31T14:29:33;4.18;;;2.63;;
11121;SDS011;5615;49.304;10.576;2023-08-31T14:32:02;10.38;;;8.23;;
11121;SDS011;5615;49.304;10.576;2023-08-31T14:34:29;6.85;;;4.70;;
11121;SDS011;5615;49.304;10.576;2023-08-31T14:36:56;13.35;;;11.32;;
11121;SDS011;5615;49.304;10.576;2023-08-31T14:39:25;29.10;;;26.13;;
11121;SDS011;5615;49.304;10.576;2023-08-31T14:41:54;20.65;;;18.70;;
11121;SDS011;5615;49.304;10.576;2023-08-31T14:44:21;4.93;;;3.65;;